Time;durP1;ratioP1;P1;durP2;ratioP2;P2;SDS_P1;SDS_P2;PMS_P1;PMS_P2;Temp;Humidity;BMP_temperature;BMP_pressure;BME280_temperature;BME280_humidity;BME280_pressure;Samples;Min_cycle;Max_cycle;Signal;HPM_P1;HPM_P2
2023/09/05 00:01:52;;;;;;;7.88;5.13;;;;;;;;;;5107513;28;20054;-65
2023/09/05 00:04:21;;;;;;;7.65;5.55;;;;;;;;;;5099343;28;20062;-65
2023/09/05 00:06:49;;;;;;;10.98;6.10;;;;;;;;;;5097417;28;20137;-65
2023/09/05 00:09:18;;;;;;;9.48;5.47;;;;;;;;;;5098433;28;20052;-65
2023/09/05 00:11:45;;;;;;;7.22;5.35;;;;;;;;;;5102838;28;20052;-65
2023/09/05 00:14:12;;;;;;;7.38;5.60;;;;;;;;;;5088784;28;20051;-65
2023/09/05 00:16:39;;;;;;;8.50;5.47;;;;;;;;;;5104226;28;20050;-65
2023/09/05 00:19:07;;;;;;;6.43;5.10;;;;;;;;;;5102669;28;20073;-65
2023/09/05 00:21:35;;;;;;;8.23;5.75;;;;;;;;;;5112868;28;20383;-65
2023/09/05 00:24:18;;;;;;;9.05;6.47;;;;;;;;;;5076343;28;20052;-65
2023/09/05 00:26:46;;;;;;;8.05;5.75;;;;;;;;;;5103650;27;20050;-65
2023/09/05 00:29:13;;;;;;;8.70;5.97;;;;;;;;;;5099030;27;20468;-65
2023/09/05 00:31:41;;;;;;;8.98;5.90;;;;;;;;;;5108164;28;20047;-65
2023/09/05 00:34:08;;;;;;;10.95;5.93;;;;;;;;;;5101309;27;20119;-65
2023/09/05 00:36:39;;;;;;;7.93;5.63;;;;;;;;;;5109112;27;20055;-65
2023/09/05 00:39:07;;;;;;;8.20;6.20;;;;;;;;;;5108437;27;20062;-65
2023/09/05 00:41:34;;;;;;;9.32;6.00;;;;;;;;;;5108013;27;20056;-65
2023/09/05 00:44:02;;;;;;;11.75;6.55;;;;;;;;;;5106374;28;20058;-65
2023/09/05 00:46:30;;;;;;;8.65;6.40;;;;;;;;;;5109076;28;20058;-65
2023/09/05 00:49:02;;;;;;;9.25;6.35;;;;;;;;;;5096951;27;20051;-65
2023/09/05 00:51:29;;;;;;;8.98;6.03;;;;;;;;;;5101393;27;20525;-65
2023/09/05 00:53:58;;;;;;;8.75;6.25;;;;;;;;;;5103580;28;20055;-65
2023/09/05 00:56:25;;;;;;;10.20;6.90;;;;;;;;;;5103669;28;20036;-65
2023/09/05 00:58:53;;;;;;;9.52;6.57;;;;;;;;;;5101682;27;20506;-65
2023/09/05 01:01:20;;;;;;;8.27;6.28;;;;;;;;;;5103466;28;20071;-65
2023/09/05 01:03:47;;;;;;;8.25;6.22;;;;;;;;;;5106331;28;20078;-65
2023/09/05 01:06:17;;;;;;;9.35;6.28;;;;;;;;;;5109682;27;20043;-65
2023/09/05 01:08:45;;;;;;;8.88;6.25;;;;;;;;;;5091303;28;20048;-65
2023/09/05 01:11:14;;;;;;;8.45;6.82;;;;;;;;;;5106313;28;20040;-65
2023/09/05 01:13:42;;;;;;;8.48;6.38;;;;;;;;;;5103070;28;20047;-65
2023/09/05 01:16:09;;;;;;;9.07;6.20;;;;;;;;;;5105288;28;20104;-64
2023/09/05 01:18:39;;;;;;;16.20;6.53;;;;;;;;;;5099673;28;20565;-65
2023/09/05 01:21:18;;;;;;;9.25;6.05;;;;;;;;;;5090693;28;20048;-65
2023/09/05 01:23:46;;;;;;;8.50;6.38;;;;;;;;;;5096943;28;20405;-65
2023/09/05 01:26:15;;;;;;;8.27;6.00;;;;;;;;;;5098345;28;20372;-64
2023/09/05 01:28:43;;;;;;;8.63;6.40;;;;;;;;;;5096253;27;20112;-65
2023/09/05 01:31:12;;;;;;;9.43;6.43;;;;;;;;;;5107990;27;20347;-65
2023/09/05 01:33:40;;;;;;;10.52;6.55;;;;;;;;;;5097660;28;20105;-65
2023/09/05 01:36:08;;;;;;;9.98;6.75;;;;;;;;;;5107301;27;20414;-65
2023/09/05 01:38:36;;;;;;;10.00;6.45;;;;;;;;;;5086622;28;20059;-65
2023/09/05 01:41:03;;;;;;;7.93;5.93;;;;;;;;;;5104421;27;20050;-65
2023/09/05 01:43:32;;;;;;;9.00;6.10;;;;;;;;;;5102502;27;20054;-65
2023/09/05 01:45:59;;;;;;;9.85;6.15;;;;;;;;;;5109964;27;20383;-65
2023/09/05 01:48:26;;;;;;;9.02;6.57;;;;;;;;;;5105011;28;20062;-65
2023/09/05 01:50:53;;;;;;;8.95;6.50;;;;;;;;;;5111461;27;20107;-65
2023/09/05 01:53:20;;;;;;;8.85;6.40;;;;;;;;;;5101082;27;20119;-65
2023/09/05 01:55:48;;;;;;;13.57;7.15;;;;;;;;;;5104473;27;20055;-64
2023/09/05 01:58:15;;;;;;;8.55;6.22;;;;;;;;;;5105076;27;20047;-65
2023/09/05 02:00:43;;;;;;;8.85;6.00;;;;;;;;;;5084196;28;20514;-65
2023/09/05 02:03:11;;;;;;;10.30;6.57;;;;;;;;;;5096519;28;20510;-65
2023/09/05 02:05:38;;;;;;;8.07;6.18;;;;;;;;;;5107460;27;20506;-65
2023/09/05 02:08:06;;;;;;;9.13;6.30;;;;;;;;;;5102705;27;20062;-65
2023/09/05 02:10:33;;;;;;;9.75;6.50;;;;;;;;;;5104039;28;20047;-65
2023/09/05 02:13:00;;;;;;;8.55;5.90;;;;;;;;;;5105376;28;20052;-65
2023/09/05 02:15:27;;;;;;;7.68;5.57;;;;;;;;;;5103074;28;20447;-65
2023/09/05 02:17:56;;;;;;;6.68;5.55;;;;;;;;;;5107959;27;20043;-65
2023/09/05 02:20:23;;;;;;;7.82;5.75;;;;;;;;;;5108019;28;20051;-65
2023/09/05 02:22:51;;;;;;;8.68;6.10;;;;;;;;;;5085010;28;20093;-64
2023/09/05 02:25:18;;;;;;;7.85;5.88;;;;;;;;;;5099547;28;20044;-65
2023/09/05 02:27:45;;;;;;;7.65;5.57;;;;;;;;;;5098477;28;20056;-65
2023/09/05 02:30:12;;;;;;;8.35;6.35;;;;;;;;;;5101936;28;20217;-64
2023/09/05 02:32:40;;;;;;;9.05;5.75;;;;;;;;;;5101816;27;20054;-65
2023/09/05 02:35:09;;;;;;;9.05;6.22;;;;;;;;;;5104792;28;20058;-65
2023/09/05 02:37:36;;;;;;;9.48;6.93;;;;;;;;;;5102666;28;20500;-65
2023/09/05 02:40:07;;;;;;;10.30;7.40;;;;;;;;;;5102670;27;20066;-64
2023/09/05 02:42:34;;;;;;;10.75;6.95;;;;;;;;;;5105751;27;20517;-65
2023/09/05 02:45:02;;;;;;;8.98;6.82;;;;;;;;;;5108226;27;20054;-65
2023/09/05 02:47:29;;;;;;;9.20;6.45;;;;;;;;;;5090930;28;20081;-65
2023/09/05 02:49:57;;;;;;;8.50;6.30;;;;;;;;;;5100693;27;20403;-65
2023/09/05 02:52:25;;;;;;;8.43;5.97;;;;;;;;;;5077992;28;20051;-64
2023/09/05 02:54:52;;;;;;;9.07;6.15;;;;;;;;;;5102247;28;20047;-65
2023/09/05 02:57:20;;;;;;;9.98;6.53;;;;;;;;;;5106557;28;20040;-65
2023/09/05 02:59:47;;;;;;;9.40;6.28;;;;;;;;;;5107961;28;20047;-65
2023/09/05 03:02:14;;;;;;;9.05;6.60;;;;;;;;;;5095296;27;20088;-66
2023/09/05 03:04:41;;;;;;;9.70;6.18;;;;;;;;;;5102523;27;20051;-64
2023/09/05 03:07:09;;;;;;;9.85;6.32;;;;;;;;;;5102133;28;20413;-64
2023/09/05 03:09:38;;;;;;;8.45;6.57;;;;;;;;;;5101831;28;20137;-65
2023/09/05 03:12:06;;;;;;;9.70;6.03;;;;;;;;;;5101852;28;20457;-65
2023/09/05 03:14:33;;;;;;;9.10;6.40;;;;;;;;;;5107010;28;20054;-65
2023/09/05 03:17:02;;;;;;;9.48;6.72;;;;;;;;;;5101423;28;20411;-64
2023/09/05 03:19:29;;;;;;;9.57;6.53;;;;;;;;;;5095270;28;20491;-65
2023/09/05 03:21:56;;;;;;;8.48;6.50;;;;;;;;;;5099975;28;20384;-65
2023/09/05 03:24:24;;;;;;;11.13;6.97;;;;;;;;;;5101872;28;20477;-64
2023/09/05 03:26:53;;;;;;;9.63;6.60;;;;;;;;;;5104293;27;20048;-65
2023/09/05 03:29:20;;;;;;;9.75;6.45;;;;;;;;;;5101144;28;20052;-65
2023/09/05 03:31:47;;;;;;;10.07;6.45;;;;;;;;;;5102104;27;20050;-65
2023/09/05 03:34:15;;;;;;;9.38;6.03;;;;;;;;;;5099670;28;20039;-65
2023/09/05 03:36:42;;;;;;;10.25;7.05;;;;;;;;;;5099246;28;20047;-65
2023/09/05 03:39:09;;;;;;;9.23;6.43;;;;;;;;;;5095417;28;20036;-64
2023/09/05 03:41:37;;;;;;;10.73;6.90;;;;;;;;;;5101954;28;20481;-65
2023/09/05 03:44:06;;;;;;;10.25;6.68;;;;;;;;;;5101072;28;20052;-65
2023/09/05 03:46:33;;;;;;;9.88;6.55;;;;;;;;;;5105299;28;20482;-64
2023/09/05 03:49:00;;;;;;;9.88;6.63;;;;;;;;;;5099463;28;20044;-65
2023/09/05 03:51:29;;;;;;;10.82;7.28;;;;;;;;;;5095793;28;20555;-65
2023/09/05 03:53:58;;;;;;;10.32;6.72;;;;;;;;;;5093836;28;20458;-65
2023/09/05 03:56:25;;;;;;;10.50;6.57;;;;;;;;;;5101755;28;20104;-65
2023/09/05 03:58:53;;;;;;;10.50;7.38;;;;;;;;;;5101793;28;20047;-65
2023/09/05 04:01:21;;;;;;;13.85;7.30;;;;;;;;;;5110686;27;20051;-65
2023/09/05 04:03:50;;;;;;;10.75;7.13;;;;;;;;;;5105041;28;20044;-65
2023/09/05 04:06:17;;;;;;;9.68;6.93;;;;;;;;;;5104692;27;20059;-65
2023/09/05 04:08:45;;;;;;;9.98;6.80;;;;;;;;;;5108306;28;20448;-65
2023/09/05 04:11:12;;;;;;;12.77;7.25;;;;;;;;;;5103817;28;20379;-65
2023/09/05 04:13:39;;;;;;;13.07;7.72;;;;;;;;;;5103281;28;20048;-64
2023/09/05 04:16:07;;;;;;;10.18;7.22;;;;;;;;;;5084261;28;20051;-65
2023/09/05 04:18:36;;;;;;;12.75;8.25;;;;;;;;;;5104763;28;20044;-64
2023/09/05 04:21:03;;;;;;;11.48;7.85;;;;;;;;;;5106174;27;20422;-64
2023/09/05 04:23:31;;;;;;;11.57;7.90;;;;;;;;;;5100109;28;21187;-65
2023/09/05 04:25:59;;;;;;;12.10;7.72;;;;;;;;;;5104663;27;20060;-65
2023/09/05 04:28:27;;;;;;;10.85;7.50;;;;;;;;;;5116683;27;20070;-65
2023/09/05 04:30:55;;;;;;;11.52;8.05;;;;;;;;;;5109814;28;20130;-65
2023/09/05 04:33:24;;;;;;;11.27;7.45;;;;;;;;;;5108224;28;20106;-65
2023/09/05 04:35:53;;;;;;;10.70;7.57;;;;;;;;;;5102748;27;20044;-65
2023/09/05 04:38:20;;;;;;;9.45;6.97;;;;;;;;;;5102721;27;20097;-65
2023/09/05 04:40:47;;;;;;;10.82;7.63;;;;;;;;;;5107861;27;20048;-65
2023/09/05 04:43:15;;;;;;;14.30;7.55;;;;;;;;;;5103038;27;20901;-65
2023/09/05 04:45:42;;;;;;;13.70;7.90;;;;;;;;;;5089159;28;20059;-65
2023/09/05 04:48:09;;;;;;;11.68;8.13;;;;;;;;;;5110127;27;20039;-64
2023/09/05 04:50:36;;;;;;;10.77;7.72;;;;;;;;;;5108885;28;20043;-65
2023/09/05 04:53:05;;;;;;;12.00;8.18;;;;;;;;;;5110430;27;20039;-65
2023/09/05 04:55:32;;;;;;;10.38;7.45;;;;;;;;;;5106407;28;20047;-65
2023/09/05 04:57:59;;;;;;;12.02;7.95;;;;;;;;;;5103393;28;20132;-65
2023/09/05 05:00:27;;;;;;;11.90;7.70;;;;;;;;;;5109200;27;20062;-65
2023/09/05 05:02:54;;;;;;;11.45;7.85;;;;;;;;;;5110481;27;20647;-65
2023/09/05 05:05:21;;;;;;;11.68;8.50;;;;;;;;;;5108844;28;20046;-65
2023/09/05 05:07:48;;;;;;;11.25;7.82;;;;;;;;;;5111828;27;20054;-65
2023/09/05 05:10:17;;;;;;;12.18;7.63;;;;;;;;;;5107358;27;20513;-65
2023/09/05 05:12:44;;;;;;;11.80;7.90;;;;;;;;;;5103918;28;20135;-65
2023/09/05 05:15:11;;;;;;;9.98;7.35;;;;;;;;;;5106087;28;20491;-64
2023/09/05 05:17:39;;;;;;;12.80;8.52;;;;;;;;;;5099732;28;20121;-63
2023/09/05 05:20:07;;;;;;;14.52;8.05;;;;;;;;;;5103920;27;20146;-64
2023/09/05 05:22:34;;;;;;;10.57;7.60;;;;;;;;;;5105840;27;20048;-64
2023/09/05 05:25:02;;;;;;;11.85;8.40;;;;;;;;;;5095461;28;20399;-64
2023/09/05 05:27:31;;;;;;;13.02;7.93;;;;;;;;;;5092587;28;20060;-64
2023/09/05 05:29:58;;;;;;;13.57;8.23;;;;;;;;;;5107753;28;20048;-64
2023/09/05 05:32:25;;;;;;;12.98;7.97;;;;;;;;;;5099653;28;20036;-64
2023/09/05 05:34:53;;;;;;;14.82;8.82;;;;;;;;;;5084866;27;20391;-65
2023/09/05 05:37:20;;;;;;;12.52;8.20;;;;;;;;;;5103990;27;20051;-65
2023/09/05 05:39:47;;;;;;;13.48;8.48;;;;;;;;;;5110407;27;20070;-64
2023/09/05 05:42:14;;;;;;;11.32;7.68;;;;;;;;;;5111149;27;20044;-64
2023/09/05 05:44:43;;;;;;;13.77;8.30;;;;;;;;;;5110960;28;20058;-65
2023/09/05 05:47:10;;;;;;;12.40;8.27;;;;;;;;;;5104295;27;20067;-64
2023/09/05 05:49:37;;;;;;;14.20;8.80;;;;;;;;;;5112995;27;20543;-65
2023/09/05 05:52:05;;;;;;;12.40;8.20;;;;;;;;;;5077996;28;20052;-65
2023/09/05 05:54:32;;;;;;;14.65;8.60;;;;;;;;;;5084260;28;20486;-65
2023/09/05 05:56:59;;;;;;;16.95;9.13;;;;;;;;;;5081037;28;20046;-64
2023/09/05 05:59:26;;;;;;;11.90;7.85;;;;;;;;;;5096361;27;20048;-65
2023/09/05 06:01:55;;;;;;;12.55;8.40;;;;;;;;;;5107209;27;20044;-65
2023/09/05 06:04:23;;;;;;;14.55;8.90;;;;;;;;;;5108616;27;20044;-65
2023/09/05 06:06:51;;;;;;;13.32;8.90;;;;;;;;;;5100632;28;20048;-65
2023/09/05 06:09:18;;;;;;;11.88;8.05;;;;;;;;;;5104627;27;20455;-65
2023/09/05 06:11:46;;;;;;;15.93;8.45;;;;;;;;;;5098335;28;20075;-64
2023/09/05 06:14:14;;;;;;;13.55;8.20;;;;;;;;;;5098779;27;20062;-65
2023/09/05 06:16:41;;;;;;;12.15;8.60;;;;;;;;;;5105139;27;20111;-65
2023/09/05 06:19:10;;;;;;;14.35;8.88;;;;;;;;;;5101784;28;20050;-65
2023/09/05 06:21:37;;;;;;;11.70;8.23;;;;;;;;;;5098618;28;20043;-64
2023/09/05 06:24:05;;;;;;;13.18;8.90;;;;;;;;;;5101149;28;20048;-64
2023/09/05 06:26:32;;;;;;;13.63;8.65;;;;;;;;;;5098633;27;20502;-64
2023/09/05 06:28:59;;;;;;;13.25;8.40;;;;;;;;;;5097529;28;20059;-65
2023/09/05 06:31:26;;;;;;;12.15;8.68;;;;;;;;;;5107751;27;20055;-64
2023/09/05 06:33:54;;;;;;;11.52;8.23;;;;;;;;;;5105242;27;20073;-64
2023/09/05 06:36:23;;;;;;;11.82;8.05;;;;;;;;;;5083827;28;20043;-64
2023/09/05 06:38:51;;;;;;;14.27;8.75;;;;;;;;;;5114961;27;20055;-65
2023/09/05 06:41:18;;;;;;;13.05;8.85;;;;;;;;;;5075890;28;20047;-65
2023/09/05 06:43:45;;;;;;;11.40;7.80;;;;;;;;;;5103145;28;20052;-64
2023/09/05 06:46:13;;;;;;;11.88;8.02;;;;;;;;;;5086184;28;20055;-64
2023/09/05 06:48:40;;;;;;;13.70;7.72;;;;;;;;;;5096420;28;20040;-64
2023/09/05 06:51:07;;;;;;;12.82;8.10;;;;;;;;;;5105523;28;20092;-64
2023/09/05 06:53:36;;;;;;;12.43;8.23;;;;;;;;;;5078323;28;20052;-65
2023/09/05 06:56:03;;;;;;;12.02;8.48;;;;;;;;;;5082992;28;20056;-64
2023/09/05 06:58:31;;;;;;;14.38;7.80;;;;;;;;;;5076924;28;20048;-64
2023/09/05 07:00:58;;;;;;;11.73;7.85;;;;;;;;;;5076065;28;20054;-64
2023/09/05 07:03:26;;;;;;;13.38;7.97;;;;;;;;;;5103071;28;20048;-64
2023/09/05 07:05:54;;;;;;;10.60;7.22;;;;;;;;;;5099110;28;20051;-64
2023/09/05 07:08:22;;;;;;;11.63;7.72;;;;;;;;;;5101798;27;20040;-64
2023/09/05 07:10:51;;;;;;;11.38;7.30;;;;;;;;;;5098677;28;20040;-65
2023/09/05 07:13:18;;;;;;;11.82;7.97;;;;;;;;;;5107350;28;20055;-64
2023/09/05 07:15:45;;;;;;;12.52;8.50;;;;;;;;;;5101828;28;20732;-64
2023/09/05 07:18:13;;;;;;;11.77;7.90;;;;;;;;;;5108265;28;20047;-64
2023/09/05 07:20:40;;;;;;;13.00;7.30;;;;;;;;;;5102333;28;20672;-64
2023/09/05 07:23:07;;;;;;;11.27;7.75;;;;;;;;;;5089583;28;20122;-64
2023/09/05 07:25:38;;;;;;;11.88;7.53;;;;;;;;;;5091849;28;20052;-64
2023/09/05 07:28:07;;;;;;;10.73;7.15;;;;;;;;;;5102659;27;20247;-64
2023/09/05 07:30:35;;;;;;;9.88;6.13;;;;;;;;;;5080095;28;20044;-65
2023/09/05 07:33:02;;;;;;;8.45;6.38;;;;;;;;;;5098916;28;20497;-65
2023/09/05 07:35:29;;;;;;;8.95;6.65;;;;;;;;;;5106290;28;20051;-64
2023/09/05 07:37:57;;;;;;;8.68;6.18;;;;;;;;;;5102164;28;20055;-65
2023/09/05 07:40:26;;;;;;;10.60;6.50;;;;;;;;;;5108209;28;20047;-64
2023/09/05 07:42:53;;;;;;;9.07;5.70;;;;;;;;;;5107151;28;20039;-65
2023/09/05 07:45:24;;;;;;;9.27;6.15;;;;;;;;;;5105830;28;20051;-64
2023/09/05 07:47:52;;;;;;;8.82;6.63;;;;;;;;;;5105128;28;20059;-65
2023/09/05 07:50:20;;;;;;;8.25;5.20;;;;;;;;;;5097556;28;20557;-65
2023/09/05 07:52:47;;;;;;;7.22;4.95;;;;;;;;;;5108804;28;20094;-65
2023/09/05 07:55:15;;;;;;;8.48;5.78;;;;;;;;;;5090005;28;20456;-65
2023/09/05 07:57:42;;;;;;;7.00;5.43;;;;;;;;;;5082687;28;20101;-65
2023/09/05 08:00:10;;;;;;;9.00;6.03;;;;;;;;;;5108080;28;20402;-65
2023/09/05 08:02:38;;;;;;;10.52;5.47;;;;;;;;;;5114097;28;20096;-65
2023/09/05 08:05:06;;;;;;;7.88;5.15;;;;;;;;;;5117750;28;20043;-65
2023/09/05 08:07:34;;;;;;;9.32;5.43;;;;;;;;;;5113737;28;20398;-64
2023/09/05 08:10:01;;;;;;;7.35;5.15;;;;;;;;;;5102847;28;20054;-65
2023/09/05 08:12:28;;;;;;;7.72;4.72;;;;;;;;;;5092233;28;20052;-64
2023/09/05 08:14:56;;;;;;;9.45;4.70;;;;;;;;;;5098435;28;20051;-65
2023/09/05 08:17:23;;;;;;;8.38;4.80;;;;;;;;;;5097065;28;20047;-65
2023/09/05 08:19:52;;;;;;;10.80;5.43;;;;;;;;;;5079333;28;20047;-65
2023/09/05 08:22:19;;;;;;;5.85;4.25;;;;;;;;;;5094789;28;20048;-65
2023/09/05 08:24:46;;;;;;;8.65;4.13;;;;;;;;;;5101974;28;20055;-65
2023/09/05 08:27:14;;;;;;;6.97;4.13;;;;;;;;;;5095020;28;20040;-64
2023/09/05 08:29:42;;;;;;;6.80;4.03;;;;;;;;;;5107603;28;20044;-65
2023/09/05 08:32:09;;;;;;;5.97;4.22;;;;;;;;;;5097300;28;20109;-65
2023/09/05 08:34:40;;;;;;;7.72;4.43;;;;;;;;;;5078549;28;20050;-64
2023/09/05 08:37:09;;;;;;;5.82;4.13;;;;;;;;;;5106443;28;20398;-65
2023/09/05 08:39:36;;;;;;;7.80;4.05;;;;;;;;;;5099093;28;20058;-65
2023/09/05 08:42:06;;;;;;;6.47;4.65;;;;;;;;;;5102931;28;20048;-65
2023/09/05 08:44:33;;;;;;;7.13;4.68;;;;;;;;;;5103616;27;20142;-65
2023/09/05 08:47:02;;;;;;;5.53;3.80;;;;;;;;;;5102079;28;20067;-65
2023/09/05 08:49:30;;;;;;;8.07;3.50;;;;;;;;;;5111605;27;20138;-65
2023/09/05 08:51:58;;;;;;;6.03;3.80;;;;;;;;;;5104734;28;20345;-65
2023/09/05 08:54:27;;;;;;;6.93;4.30;;;;;;;;;;5096755;27;20122;-65
2023/09/05 08:56:54;;;;;;;7.00;4.10;;;;;;;;;;5097725;28;20051;-65
2023/09/05 08:59:22;;;;;;;6.53;4.03;;;;;;;;;;5106869;28;20597;-65
2023/09/05 09:01:49;;;;;;;5.97;3.80;;;;;;;;;;5100311;27;20081;-65
2023/09/05 09:04:17;;;;;;;4.85;3.45;;;;;;;;;;5108453;28;20491;-65
2023/09/05 09:06:45;;;;;;;5.35;3.60;;;;;;;;;;5084064;28;20064;-65
2023/09/05 09:09:27;;;;;;;4.18;3.35;;;;;;;;;;5107821;27;20475;-65
2023/09/05 09:12:01;;;;;;;4.45;3.00;;;;;;;;;;5103075;27;20055;-65
2023/09/05 09:14:28;;;;;;;6.88;2.83;;;;;;;;;;5109235;27;20067;-65
2023/09/05 09:16:55;;;;;;;6.30;2.88;;;;;;;;;;5099609;27;20054;-65
2023/09/05 09:19:23;;;;;;;5.88;2.72;;;;;;;;;;5098047;27;20887;-65
2023/09/05 09:21:50;;;;;;;7.82;3.28;;;;;;;;;;5105881;27;20538;-65
2023/09/05 09:24:18;;;;;;;4.68;2.90;;;;;;;;;;5099963;28;20048;-65
2023/09/05 09:26:46;;;;;;;4.03;2.67;;;;;;;;;;5110324;27;20043;-65
2023/09/05 09:29:14;;;;;;;4.82;2.53;;;;;;;;;;5104205;27;20055;-65
2023/09/05 09:31:43;;;;;;;3.78;2.30;;;;;;;;;;5102420;27;20058;-65
2023/09/05 09:34:13;;;;;;;3.47;2.38;;;;;;;;;;5098062;28;20048;-65
2023/09/05 09:36:40;;;;;;;3.60;2.40;;;;;;;;;;5106660;27;20043;-65
2023/09/05 09:39:11;;;;;;;3.33;1.77;;;;;;;;;;5104041;27;20047;-65
2023/09/05 09:41:48;;;;;;;5.82;2.10;;;;;;;;;;5105787;28;20051;-65
2023/09/05 09:44:26;;;;;;;2.75;1.90;;;;;;;;;;5110067;27;20047;-65
2023/09/05 09:46:53;;;;;;;4.70;2.13;;;;;;;;;;5107777;27;20132;-65
2023/09/05 09:49:21;;;;;;;2.92;1.88;;;;;;;;;;5100197;27;20046;-65
2023/09/05 09:51:53;;;;;;;3.28;1.80;;;;;;;;;;5103219;27;20119;-65
2023/09/05 09:54:23;;;;;;;2.70;1.80;;;;;;;;;;5095310;27;20040;-65
2023/09/05 09:56:50;;;;;;;2.85;2.05;;;;;;;;;;5100784;28;20055;-65
2023/09/05 09:59:20;;;;;;;2.80;1.95;;;;;;;;;;5103687;27;20411;-65
2023/09/05 10:01:51;;;;;;;2.63;1.80;;;;;;;;;;5105959;28;20135;-65
2023/09/05 10:04:19;;;;;;;2.67;1.50;;;;;;;;;;5099334;27;20052;-65
2023/09/05 10:06:48;;;;;;;2.92;1.55;;;;;;;;;;5103127;27;20155;-65
2023/09/05 10:09:16;;;;;;;2.40;1.30;;;;;;;;;;5098906;28;20044;-65
2023/09/05 10:11:44;;;;;;;2.53;1.20;;;;;;;;;;5101410;28;20051;-65
2023/09/05 10:14:12;;;;;;;3.08;1.77;;;;;;;;;;5099739;27;20492;-65
2023/09/05 10:16:41;;;;;;;2.63;1.40;;;;;;;;;;5097790;28;20070;-65
2023/09/05 10:19:11;;;;;;;2.25;1.30;;;;;;;;;;5106702;27;20040;-65
2023/09/05 10:21:38;;;;;;;2.47;1.50;;;;;;;;;;5100548;28;20055;-65
2023/09/05 10:24:07;;;;;;;2.65;1.52;;;;;;;;;;5097233;28;20470;-64
2023/09/05 10:26:34;;;;;;;1.98;1.60;;;;;;;;;;5103005;27;20048;-65
2023/09/05 10:29:03;;;;;;;4.47;1.30;;;;;;;;;;5094175;28;20048;-65
2023/09/05 10:31:31;;;;;;;3.95;1.40;;;;;;;;;;5098542;27;20044;-65
2023/09/05 10:34:00;;;;;;;3.05;1.30;;;;;;;;;;5101250;28;20057;-65
2023/09/05 10:36:46;;;;;;;2.10;1.40;;;;;;;;;;5102148;27;20048;-65
2023/09/05 10:39:22;;;;;;;2.70;1.50;;;;;;;;;;5088972;27;20097;-65
2023/09/05 10:41:50;;;;;;;2.40;1.48;;;;;;;;;;5107201;28;20060;-65
2023/09/05 10:44:18;;;;;;;2.95;1.65;;;;;;;;;;5107437;28;20035;-65
2023/09/05 10:46:45;;;;;;;2.03;1.40;;;;;;;;;;5104354;27;20050;-65
2023/09/05 10:49:14;;;;;;;2.03;1.30;;;;;;;;;;5103585;27;20044;-65
2023/09/05 10:51:56;;;;;;;4.82;1.73;;;;;;;;;;5099750;27;20055;-65
2023/09/05 10:54:32;;;;;;;1.67;1.10;;;;;;;;;;5092658;28;20075;-65
2023/09/05 10:57:01;;;;;;;1.73;1.42;;;;;;;;;;5102705;28;20057;-65
2023/09/05 10:59:29;;;;;;;1.60;1.30;;;;;;;;;;5104531;27;20059;-65
2023/09/05 11:02:02;;;;;;;3.72;1.23;;;;;;;;;;5106102;28;20498;-65
2023/09/05 11:04:34;;;;;;;;;;;;;;;;;;5097013;28;20387;-65
2023/09/05 11:07:13;;;;;;;1.58;1.30;;;;;;;;;;5091314;28;19923;-65
2023/09/05 11:09:44;;;;;;;2.35;1.48;;;;;;;;;;5102453;28;20040;-65
2023/09/05 11:12:12;;;;;;;2.03;1.30;;;;;;;;;;5101315;27;20050;-65
2023/09/05 11:14:40;;;;;;;2.47;1.38;;;;;;;;;;5103310;28;20062;-65
2023/09/05 11:17:08;;;;;;;2.47;1.52;;;;;;;;;;5100102;28;20060;-65
2023/09/05 11:19:38;;;;;;;3.40;1.50;;;;;;;;;;5096389;28;20059;-65
2023/09/05 11:22:23;;;;;;;1.90;1.52;;;;;;;;;;5095010;27;20048;-65
2023/09/05 11:24:52;;;;;;;3.65;1.27;;;;;;;;;;5095474;28;20074;-65
2023/09/05 11:27:22;;;;;;;2.83;1.20;;;;;;;;;;5080645;28;20044;-65
2023/09/05 11:29:51;;;;;;;1.80;1.23;;;;;;;;;;5108160;27;20510;-65
2023/09/05 11:32:19;;;;;;;2.95;1.85;;;;;;;;;;5097000;28;20058;-65
2023/09/05 11:34:47;;;;;;;2.70;1.90;;;;;;;;;;5105264;27;20084;-65
2023/09/05 11:37:21;;;;;;;2.78;1.48;;;;;;;;;;5103999;28;20051;-66
2023/09/05 11:39:49;;;;;;;2.00;1.20;;;;;;;;;;5099401;28;20567;-66
2023/09/05 11:42:19;;;;;;;1.88;1.42;;;;;;;;;;5101747;28;20120;-66
2023/09/05 11:44:46;;;;;;;2.53;1.70;;;;;;;;;;5105732;28;20048;-65
2023/09/05 11:47:14;;;;;;;1.95;1.30;;;;;;;;;;5103111;28;20044;-65
2023/09/05 11:49:42;;;;;;;2.05;1.48;;;;;;;;;;5101886;28;20075;-66
2023/09/05 11:52:09;;;;;;;3.15;1.27;;;;;;;;;;5079421;28;20052;-65
2023/09/05 11:54:37;;;;;;;1.85;1.40;;;;;;;;;;5106751;28;20520;-66
2023/09/05 11:57:04;;;;;;;2.53;1.55;;;;;;;;;;5103525;28;20051;-65
2023/09/05 11:59:33;;;;;;;2.13;1.50;;;;;;;;;;5102639;28;20051;-66
2023/09/05 12:02:06;;;;;;;2.08;1.50;;;;;;;;;;5103982;28;20051;-66
2023/09/05 12:04:35;;;;;;;2.00;1.50;;;;;;;;;;5104190;28;20047;-66
2023/09/05 12:07:05;;;;;;;2.38;1.58;;;;;;;;;;5097001;28;20065;-66
2023/09/05 12:09:32;;;;;;;1.85;1.40;;;;;;;;;;5085275;28;20056;-66
2023/09/05 12:12:08;;;;;;;2.13;1.50;;;;;;;;;;5096433;28;20055;-66
2023/09/05 12:14:48;;;;;;;3.90;1.77;;;;;;;;;;5099282;28;20513;-66
2023/09/05 12:17:16;;;;;;;3.13;1.58;;;;;;;;;;5099609;28;20111;-66
2023/09/05 12:19:45;;;;;;;3.22;1.80;;;;;;;;;;5097611;28;20050;-66
2023/09/05 12:22:20;;;;;;;1.90;1.70;;;;;;;;;;5104258;27;20052;-67
2023/09/05 12:24:47;;;;;;;1.60;1.50;;;;;;;;;;5109071;27;20066;-66
2023/09/05 12:27:24;;;;;;;1.65;1.50;;;;;;;;;;5106770;28;20048;-66
2023/09/05 12:29:55;;;;;;;1.90;1.70;;;;;;;;;;5107383;27;20040;-66
2023/09/05 12:32:26;;;;;;;2.70;1.65;;;;;;;;;;5104560;28;20509;-66
2023/09/05 12:34:53;;;;;;;2.08;1.70;;;;;;;;;;5105234;27;20055;-66
2023/09/05 12:37:21;;;;;;;1.98;1.73;;;;;;;;;;5104014;28;20394;-67
2023/09/05 12:39:50;;;;;;;3.65;1.80;;;;;;;;;;5113720;27;20065;-66
2023/09/05 12:42:17;;;;;;;4.60;1.80;;;;;;;;;;5108307;27;20050;-66
2023/09/05 12:44:45;;;;;;;2.08;1.88;;;;;;;;;;5107364;27;20379;-67
2023/09/05 12:47:14;;;;;;;1.80;1.50;;;;;;;;;;5090686;28;20056;-66
2023/09/05 12:49:42;;;;;;;1.70;1.60;;;;;;;;;;5108945;27;20101;-67
2023/09/05 12:52:10;;;;;;;4.90;1.60;;;;;;;;;;5090103;27;20048;-66
2023/09/05 12:54:37;;;;;;;1.95;1.70;;;;;;;;;;5116309;27;20598;-66
2023/09/05 12:57:04;;;;;;;1.77;1.50;;;;;;;;;;5105843;27;20043;-66
2023/09/05 12:59:31;;;;;;;1.73;1.63;;;;;;;;;;5108588;28;20134;-66
2023/09/05 13:01:59;;;;;;;3.03;1.85;;;;;;;;;;5101966;28;20055;-66
2023/09/05 13:04:29;;;;;;;2.45;1.73;;;;;;;;;;5107304;28;20051;-66
2023/09/05 13:06:56;;;;;;;1.95;1.63;;;;;;;;;;5102839;27;20054;-66
2023/09/05 13:09:24;;;;;;;2.10;1.90;;;;;;;;;;5100531;28;20040;-66
2023/09/05 13:11:52;;;;;;;2.25;1.70;;;;;;;;;;5096066;27;20050;-66
2023/09/05 13:14:19;;;;;;;2.53;1.80;;;;;;;;;;5098740;27;20056;-66
2023/09/05 13:16:46;;;;;;;2.05;1.70;;;;;;;;;;5102121;28;20050;-66
2023/09/05 13:19:13;;;;;;;2.25;1.77;;;;;;;;;;5103184;28;20047;-66
2023/09/05 13:21:42;;;;;;;1.70;1.60;;;;;;;;;;5107932;28;20459;-66
2023/09/05 13:24:09;;;;;;;2.97;1.75;;;;;;;;;;5121300;27;20542;-66
2023/09/05 13:26:36;;;;;;;2.08;1.67;;;;;;;;;;5109931;28;20154;-66
2023/09/05 13:29:04;;;;;;;1.77;1.67;;;;;;;;;;5107799;28;20060;-66
2023/09/05 13:31:31;;;;;;;1.70;1.60;;;;;;;;;;5108949;28;20055;-66
2023/09/05 13:33:58;;;;;;;2.00;1.80;;;;;;;;;;5101290;28;20040;-66
2023/09/05 13:36:25;;;;;;;6.15;2.00;;;;;;;;;;5112604;27;20047;-67
2023/09/05 13:38:54;;;;;;;1.80;1.70;;;;;;;;;;5107039;28;20055;-67
2023/09/05 13:41:21;;;;;;;3.72;1.80;;;;;;;;;;5100822;28;20036;-67
2023/09/05 13:43:48;;;;;;;2.25;2.05;;;;;;;;;;5106410;28;20512;-67
2023/09/05 13:46:15;;;;;;;2.15;1.73;;;;;;;;;;5091294;28;20051;-67
2023/09/05 13:48:45;;;;;;;1.70;1.60;;;;;;;;;;5102659;27;20426;-67
2023/09/05 13:51:15;;;;;;;2.13;1.70;;;;;;;;;;5115159;27;20047;-67
2023/09/05 13:53:42;;;;;;;3.25;1.88;;;;;;;;;;5086538;28;20059;-67
2023/09/05 13:56:11;;;;;;;3.15;1.50;;;;;;;;;;5102989;28;20379;-67
2023/09/05 13:58:38;;;;;;;4.75;1.80;;;;;;;;;;5093836;27;20056;-67
2023/09/05 14:01:06;;;;;;;3.38;1.80;;;;;;;;;;5099205;28;20051;-67
2023/09/05 14:03:33;;;;;;;2.35;1.80;;;;;;;;;;5093213;28;20056;-67
2023/09/05 14:06:00;;;;;;;1.95;1.70;;;;;;;;;;5092864;27;20055;-66
2023/09/05 14:08:27;;;;;;;2.15;1.63;;;;;;;;;;5102786;27;20540;-67
2023/09/05 14:10:55;;;;;;;2.60;1.75;;;;;;;;;;5096804;27;20048;-67
2023/09/05 14:13:24;;;;;;;2.80;1.80;;;;;;;;;;5105353;28;20054;-67
2023/09/05 14:15:51;;;;;;;1.98;1.70;;;;;;;;;;5101649;28;20499;-67
2023/09/05 14:18:18;;;;;;;2.80;2.10;;;;;;;;;;5097571;27;20055;-67
2023/09/05 14:20:45;;;;;;;2.53;1.70;;;;;;;;;;5109744;27;20040;-67
2023/09/05 14:23:12;;;;;;;2.08;1.80;;;;;;;;;;5101408;28;20485;-67
2023/09/05 14:25:40;;;;;;;2.35;1.90;;;;;;;;;;5106643;27;20047;-67
2023/09/05 14:28:07;;;;;;;2.25;1.70;;;;;;;;;;5103963;28;20066;-67
2023/09/05 14:30:36;;;;;;;2.53;1.80;;;;;;;;;;5112516;27;20049;-67
2023/09/05 14:33:05;;;;;;;2.95;1.90;;;;;;;;;;5114294;27;20052;-67
2023/09/05 14:35:32;;;;;;;2.05;1.73;;;;;;;;;;5113780;27;20058;-67
2023/09/05 14:38:00;;;;;;;2.00;1.80;;;;;;;;;;5104742;27;20047;-67
2023/09/05 14:40:28;;;;;;;2.03;1.83;;;;;;;;;;5115790;27;20051;-67
2023/09/05 14:42:55;;;;;;;2.70;1.85;;;;;;;;;;5082047;28;20048;-67
2023/09/05 14:45:23;;;;;;;2.30;2.10;;;;;;;;;;5104849;27;21036;-67
2023/09/05 14:47:51;;;;;;;2.15;1.95;;;;;;;;;;5108899;27;20055;-67